createdAt,value
2022-10-02T00:00:09.589Z,5.35
2022-10-02T00:02:55.619Z,5.35
2022-10-02T00:05:42.511Z,5.28
2022-10-02T00:08:42.410Z,4.70
2022-10-02T00:11:18.588Z,4.82
2022-10-02T00:14:02.784Z,4.70
2022-10-02T00:16:39.572Z,4.35
2022-10-02T00:19:11.473Z,4.25
2022-10-02T00:21:58.948Z,3.47
2022-10-02T00:24:41.391Z,3.70
2022-10-02T00:27:22.400Z,3.28
2022-10-02T00:29:54.086Z,3.40
2022-10-02T00:32:46.077Z,3.78
2022-10-02T00:35:46.244Z,3.50
2022-10-02T00:38:34.737Z,3.13
2022-10-02T00:41:17.524Z,2.90
2022-10-02T00:44:12.373Z,2.90
2022-10-02T00:46:49.703Z,2.92
2022-10-02T00:49:26.279Z,2.67
2022-10-02T00:52:14.783Z,2.78
2022-10-02T00:55:04.165Z,2.40
2022-10-02T00:57:45.625Z,2.25
2022-10-02T01:00:18.797Z,2.58
2022-10-02T01:03:04.394Z,2.05
2022-10-02T01:05:34.300Z,2.60
2022-10-02T01:08:02.381Z,2.30
2022-10-02T01:10:30.402Z,2.33
2022-10-02T01:12:58.879Z,2.60
2022-10-02T01:15:37.592Z,2.42
2022-10-02T01:18:07.417Z,2.20
2022-10-02T01:20:42.329Z,2.70
2022-10-02T01:23:24.995Z,2.67
2022-10-02T01:25:52.474Z,2.75
2022-10-02T01:28:20.351Z,2.70
2022-10-02T01:30:51.479Z,3.00
2022-10-02T01:33:19.662Z,2.42
2022-10-02T01:35:47.903Z,2.50
2022-10-02T01:38:20.473Z,2.60
2022-10-02T01:40:47.798Z,2.10
2022-10-02T01:43:20.804Z,2.40
2022-10-02T01:45:48.110Z,2.60
2022-10-02T01:48:30.557Z,2.65
2022-10-02T01:51:30.599Z,2.72
2022-10-02T01:54:21.345Z,2.58
2022-10-02T01:57:04.292Z,3.00
2022-10-02T01:59:31.649Z,3.22
2022-10-02T02:02:07.838Z,2.60
2022-10-02T02:04:54.414Z,2.78
2022-10-02T02:07:28.261Z,2.78
2022-10-02T02:10:02.445Z,2.33
2022-10-02T02:12:41.903Z,2.63
2022-10-02T02:15:36.738Z,2.50
2022-10-02T02:18:10.520Z,2.22
2022-10-02T02:20:50.947Z,2.35
2022-10-02T02:23:22.362Z,2.17
2022-10-02T02:25:56.854Z,2.20
2022-10-02T02:28:26.297Z,2.10
2022-10-02T02:30:55.856Z,2.20
2022-10-02T02:33:44.799Z,1.92
2022-10-02T02:36:18.159Z,2.00
2022-10-02T02:38:51.434Z,2.10
2022-10-02T02:41:28.765Z,2.10
2022-10-02T02:44:01.774Z,2.10
2022-10-02T02:46:59.512Z,2.00
2022-10-02T02:49:30.296Z,2.10
2022-10-02T02:52:01.517Z,1.77
2022-10-02T02:54:46.519Z,2.17
2022-10-02T02:57:16.239Z,1.75
2022-10-02T02:59:49.232Z,1.90
2022-10-02T03:02:16.685Z,2.03
2022-10-02T03:04:44.081Z,2.20
2022-10-02T03:07:15.998Z,1.92
2022-10-02T03:10:12.753Z,1.92
2022-10-02T03:13:09.425Z,2.17
2022-10-02T03:16:01.734Z,1.92
2022-10-02T03:18:43.489Z,2.05
2022-10-02T03:21:39.837Z,2.17
2022-10-02T03:24:19.861Z,2.05
2022-10-02T03:26:55.117Z,2.10
2022-10-02T03:29:35.763Z,2.20
2022-10-02T03:32:05.941Z,2.90
2022-10-02T03:34:34.443Z,2.50
2022-10-02T03:37:05.142Z,2.47
2022-10-02T03:39:32.469Z,2.38
2022-10-02T03:42:00.974Z,2.67
2022-10-02T03:44:28.328Z,3.03
2022-10-02T03:46:55.717Z,3.13
2022-10-02T03:49:23.111Z,2.80
2022-10-02T03:51:50.447Z,2.78
2022-10-02T03:54:20.863Z,3.00
2022-10-02T03:56:58.892Z,3.20
2022-10-02T03:59:33.901Z,3.00
2022-10-02T04:02:06.294Z,2.80
2022-10-02T04:04:48.537Z,3.00
2022-10-02T04:10:16.464Z,3.03
2022-10-02T04:12:49.438Z,3.10
2022-10-02T04:15:23.322Z,3.50
2022-10-02T04:17:59.766Z,3.17
2022-10-02T04:20:35.402Z,3.90
2022-10-02T04:23:17.774Z,3.72
2022-10-02T04:25:50.858Z,4.05
2022-10-02T04:28:26.545Z,4.07
2022-10-02T04:30:54.262Z,3.63
2022-10-02T04:33:24.687Z,3.80
2022-10-02T04:36:03.999Z,3.72
2022-10-02T04:38:59.258Z,3.40
2022-10-02T04:41:38.315Z,3.90
2022-10-02T04:44:35.975Z,3.85
2022-10-02T04:47:20.856Z,2.90
2022-10-02T04:50:00.325Z,3.55
2022-10-02T04:52:34.694Z,3.50
2022-10-02T04:55:36.419Z,3.42
2022-10-02T04:58:27.357Z,3.63
2022-10-02T05:01:12.844Z,3.53
2022-10-02T05:03:49.260Z,3.42
2022-10-02T05:06:42.343Z,3.03
2022-10-02T05:09:13.761Z,3.35
2022-10-02T05:11:52.862Z,3.03
2022-10-02T05:14:26.234Z,3.20
2022-10-02T05:17:03.627Z,3.25
2022-10-02T05:19:43.159Z,3.85
2022-10-02T05:22:39.494Z,4.13
2022-10-02T05:25:24.835Z,4.97
2022-10-02T05:28:08.831Z,4.40
2022-10-02T05:31:19.519Z,4.50
2022-10-02T05:34:29.258Z,4.57
2022-10-02T05:36:56.526Z,4.10
2022-10-02T05:39:48.636Z,4.00
2022-10-02T05:42:26.534Z,3.65
2022-10-02T05:45:11.707Z,3.00
2022-10-02T05:47:42.625Z,3.53
2022-10-02T05:50:26.398Z,3.42
2022-10-02T05:52:56.248Z,3.35
2022-10-02T05:55:48.211Z,2.58
2022-10-02T05:58:19.735Z,3.10
2022-10-02T06:00:52.280Z,2.88
2022-10-02T06:03:31.020Z,3.20
2022-10-02T06:06:11.201Z,3.70
2022-10-02T06:08:48.704Z,3.30
2022-10-02T06:11:22.297Z,3.47
2022-10-02T06:14:12.936Z,3.10
2022-10-02T06:16:57.383Z,3.20
2022-10-02T06:19:30.628Z,3.38
2022-10-02T06:22:07.899Z,3.47
2022-10-02T06:24:46.492Z,3.40
2022-10-02T06:27:44.170Z,3.70
2022-10-02T06:30:17.409Z,2.92
2022-10-02T06:33:06.820Z,3.67
2022-10-02T06:35:54.370Z,3.85
2022-10-02T06:38:40.297Z,4.10
2022-10-02T06:41:38.279Z,3.65
2022-10-02T06:44:17.935Z,3.40
2022-10-02T06:47:01.446Z,4.38
2022-10-02T06:49:40.561Z,3.97
2022-10-02T06:52:26.247Z,3.50
2022-10-02T06:55:15.287Z,4.03
2022-10-02T06:58:03.609Z,4.22
2022-10-02T07:00:37.001Z,3.95
2022-10-02T07:03:23.502Z,4.30
2022-10-02T07:06:01.789Z,4.07
2022-10-02T07:08:59.336Z,3.95
2022-10-02T07:12:08.370Z,3.50
2022-10-02T07:14:47.816Z,3.00
2022-10-02T07:17:44.095Z,3.40
2022-10-02T07:20:34.126Z,2.92
2022-10-02T07:23:35.174Z,3.00
2022-10-02T07:26:23.907Z,3.05
2022-10-02T07:29:20.502Z,3.00
2022-10-02T07:31:50.787Z,2.55
2022-10-02T07:34:43.934Z,2.72
2022-10-02T07:37:30.026Z,2.72
2022-10-02T07:40:18.596Z,3.03
2022-10-02T07:42:51.912Z,2.80
2022-10-02T07:45:41.999Z,2.67
2022-10-02T07:48:24.306Z,2.80
2022-10-02T07:51:04.566Z,2.63
2022-10-02T07:53:40.854Z,2.80
2022-10-02T07:56:20.115Z,2.75
2022-10-02T07:58:54.787Z,2.95
2022-10-02T08:01:26.149Z,3.25
2022-10-02T08:04:01.201Z,3.00
2022-10-02T08:06:29.608Z,3.00
2022-10-02T08:09:03.311Z,3.00
2022-10-02T08:11:43.290Z,3.22
2022-10-02T08:14:26.947Z,3.28
2022-10-02T08:16:57.349Z,3.30
2022-10-02T08:19:27.932Z,3.35
2022-10-02T08:22:10.091Z,3.30
2022-10-02T08:24:59.045Z,3.15
2022-10-02T08:27:47.790Z,3.60
2022-10-02T08:30:15.754Z,3.22
2022-10-02T08:32:44.006Z,3.40
2022-10-02T08:35:13.117Z,3.35
2022-10-02T08:38:12.827Z,3.80
2022-10-02T08:41:05.085Z,3.90
2022-10-02T08:43:41.694Z,3.70
2022-10-02T08:46:47.603Z,3.72
2022-10-02T08:49:35.555Z,3.70
2022-10-02T08:52:41.007Z,3.78
2022-10-02T08:55:52.815Z,3.83
2022-10-02T09:01:26.414Z,4.05
2022-10-02T09:04:14.195Z,4.25
2022-10-02T09:07:15.615Z,4.88
2022-10-02T09:10:13.647Z,4.97
2022-10-02T09:12:44.222Z,5.65
2022-10-02T09:15:16.140Z,5.38
2022-10-02T09:18:01.656Z,5.13
2022-10-02T09:20:51.254Z,5.78
2022-10-02T09:23:40.821Z,5.90
2022-10-02T09:26:27.027Z,6.57
2022-10-02T09:29:18.091Z,6.82
2022-10-02T09:32:05.260Z,6.28
2022-10-02T09:34:54.369Z,6.50
2022-10-02T09:37:50.949Z,7.18
2022-10-02T09:40:33.030Z,6.60
2022-10-02T09:43:15.471Z,7.05
2022-10-02T09:45:51.706Z,6.90
2022-10-02T09:48:49.764Z,7.50
2022-10-02T09:51:47.610Z,7.50
2022-10-02T09:54:36.611Z,6.80
2022-10-02T09:57:22.363Z,7.43
2022-10-02T10:00:26.713Z,7.78
2022-10-02T10:03:25.142Z,7.18
2022-10-02T10:06:30.130Z,7.40
2022-10-02T10:09:19.310Z,7.90
2022-10-02T10:12:20.519Z,7.20
2022-10-02T10:15:20.037Z,7.20
2022-10-02T10:18:10.394Z,7.95
2022-10-02T10:21:31.705Z,8.02
2022-10-02T10:24:19.015Z,8.50
2022-10-02T10:27:20.187Z,8.70
2022-10-02T10:30:21.407Z,8.35
2022-10-02T10:33:16.537Z,8.25
2022-10-02T10:36:46.898Z,8.27
2022-10-02T10:39:38.991Z,8.50
2022-10-02T10:42:56.054Z,8.85
2022-10-02T10:45:38.942Z,7.85
2022-10-02T10:48:32.539Z,7.90
2022-10-02T10:51:35.939Z,7.80
2022-10-02T10:54:15.711Z,8.55
2022-10-02T10:57:11.333Z,7.60
2022-10-02T11:00:01.070Z,9.05
2022-10-02T11:02:38.819Z,8.55
2022-10-02T11:05:26.381Z,8.27
2022-10-02T11:08:09.643Z,7.82
2022-10-02T11:10:52.967Z,8.35
2022-10-02T11:13:35.347Z,7.78
2022-10-02T11:16:28.117Z,8.32
2022-10-02T11:19:26.597Z,8.70
2022-10-02T11:22:35.692Z,8.45
2022-10-02T11:25:12.871Z,7.38
2022-10-02T11:28:08.221Z,7.22
2022-10-02T11:31:09.700Z,7.57
2022-10-02T11:33:56.440Z,8.30
2022-10-02T11:36:52.637Z,8.32
2022-10-02T11:39:49.943Z,7.82
2022-10-02T11:42:54.646Z,7.60
2022-10-02T11:45:51.698Z,8.80
2022-10-02T11:49:00.999Z,8.77
2022-10-02T11:51:41.706Z,8.07
2022-10-02T11:54:35.621Z,8.43
2022-10-02T11:57:29.756Z,9.05
2022-10-02T12:00:04.717Z,7.82
2022-10-02T12:02:55.523Z,7.85
2022-10-02T12:05:46.086Z,8.50
2022-10-02T12:08:34.379Z,7.80
2022-10-02T12:11:42.142Z,6.68
2022-10-02T12:14:27.866Z,6.38
2022-10-02T12:17:22.531Z,7.38
2022-10-02T12:20:23.411Z,7.30
2022-10-02T12:23:52.126Z,6.80
2022-10-02T12:27:13.100Z,6.38
2022-10-02T12:29:46.253Z,6.43
2022-10-02T12:32:41.431Z,7.57
2022-10-02T12:35:27.704Z,6.40
2022-10-02T12:38:00.975Z,6.68
2022-10-02T12:40:43.747Z,6.68
2022-10-02T12:43:17.459Z,5.93
2022-10-02T12:46:05.191Z,6.25
2022-10-02T12:48:38.845Z,6.68
2022-10-02T12:51:24.120Z,6.75
2022-10-02T12:54:26.512Z,6.07
2022-10-02T12:59:59.046Z,5.40
2022-10-02T13:03:11.674Z,4.72
2022-10-02T13:08:24.719Z,4.85
2022-10-02T13:11:21.105Z,4.95
2022-10-02T13:14:03.629Z,5.10
2022-10-02T13:16:31.123Z,5.32
2022-10-02T13:19:13.595Z,4.57
2022-10-02T13:22:10.075Z,4.25
2022-10-02T13:24:49.653Z,5.20
2022-10-02T13:27:18.778Z,4.43
2022-10-02T13:30:07.886Z,4.85
2022-10-02T13:32:41.196Z,5.10
2022-10-02T13:35:21.004Z,4.50
2022-10-02T13:38:01.878Z,5.00
2022-10-02T13:40:58.367Z,4.38
2022-10-02T13:43:34.558Z,4.05
2022-10-02T13:46:47.486Z,4.43
2022-10-02T13:49:48.950Z,3.97
2022-10-02T13:52:29.294Z,4.40
2022-10-02T13:55:26.282Z,4.57
2022-10-02T13:58:10.874Z,4.20
2022-10-02T14:00:38.174Z,3.67
2022-10-02T14:03:26.587Z,3.55
2022-10-02T14:06:21.823Z,3.85
2022-10-02T14:08:57.898Z,3.45
2022-10-02T14:11:34.445Z,3.78
2022-10-02T14:14:14.116Z,3.13
2022-10-02T14:17:02.312Z,3.67
2022-10-02T14:19:44.432Z,3.10
2022-10-02T14:25:17.286Z,3.00
2022-10-02T14:27:50.809Z,3.45
2022-10-02T14:30:22.476Z,3.17
2022-10-02T14:33:01.591Z,3.25
2022-10-02T14:35:43.760Z,2.95
2022-10-02T14:38:23.331Z,2.88
2022-10-02T14:40:55.776Z,3.30
2022-10-02T14:44:07.382Z,3.90
2022-10-02T14:47:01.287Z,4.20
2022-10-02T14:49:43.923Z,3.80
2022-10-02T14:52:35.796Z,3.50
2022-10-02T14:55:15.820Z,3.67
2022-10-02T14:58:15.231Z,3.55
2022-10-02T15:01:02.702Z,3.05
2022-10-02T15:03:52.052Z,4.00
2022-10-02T15:07:01.559Z,3.50
2022-10-02T15:09:32.308Z,3.08
2022-10-02T15:12:10.881Z,3.70
2022-10-02T15:14:43.594Z,3.08
2022-10-02T15:17:47.747Z,3.38
2022-10-02T15:20:24.127Z,3.60
2022-10-02T15:22:57.862Z,3.83
2022-10-02T15:25:53.454Z,3.88
2022-10-02T15:28:40.231Z,3.42
2022-10-02T15:31:18.030Z,2.97
2022-10-02T15:34:18.715Z,3.38
2022-10-02T15:36:57.190Z,2.80
2022-10-02T15:39:33.651Z,3.10
2022-10-02T15:42:10.217Z,3.38
2022-10-02T15:45:00.332Z,3.17
2022-10-02T15:47:51.655Z,2.83
2022-10-02T15:50:34.334Z,3.15
2022-10-02T15:53:17.208Z,2.90
2022-10-02T15:55:50.730Z,3.20
2022-10-02T15:58:27.967Z,3.15
2022-10-02T16:01:01.118Z,3.28
2022-10-02T16:03:38.212Z,2.97
2022-10-02T16:06:12.752Z,2.45
2022-10-02T16:09:09.357Z,2.60
2022-10-02T16:12:01.524Z,2.13
2022-10-02T16:14:38.791Z,2.45
2022-10-02T16:17:21.132Z,2.38
2022-10-02T16:20:07.114Z,2.63
2022-10-02T16:22:44.171Z,2.50
2022-10-02T16:25:27.215Z,2.25
2022-10-02T16:28:27.320Z,2.17
2022-10-02T16:31:26.172Z,2.67
2022-10-02T16:34:19.935Z,2.55
2022-10-02T16:37:09.131Z,2.10
2022-10-02T16:39:47.643Z,2.40
2022-10-02T16:42:27.119Z,2.88
2022-10-02T16:45:04.882Z,2.40
2022-10-02T16:48:02.305Z,3.20
2022-10-02T16:50:48.835Z,2.83
2022-10-02T16:53:28.662Z,2.55
2022-10-02T16:56:06.770Z,2.97
2022-10-02T16:58:47.483Z,2.83
2022-10-02T17:01:22.435Z,2.28
2022-10-02T17:04:28.177Z,2.25
2022-10-02T17:07:14.345Z,2.30
2022-10-02T17:10:07.947Z,3.00
2022-10-02T17:12:46.894Z,2.53
2022-10-02T17:15:27.277Z,2.58
2022-10-02T17:18:15.972Z,2.78
2022-10-02T17:21:02.952Z,2.53
2022-10-02T17:24:19.801Z,2.67
2022-10-02T17:26:53.645Z,2.67
2022-10-02T17:29:39.097Z,3.47
2022-10-02T17:32:09.342Z,3.47
2022-10-02T17:34:49.880Z,3.50
2022-10-02T17:37:17.366Z,3.20
2022-10-02T17:40:03.305Z,3.10
2022-10-02T17:42:51.976Z,3.22
2022-10-02T17:45:45.728Z,3.92
2022-10-02T17:48:21.959Z,3.83
2022-10-02T17:50:55.870Z,3.15
2022-10-02T17:54:02.386Z,3.10
2022-10-02T17:56:32.667Z,3.60
2022-10-02T17:59:17.209Z,3.65
2022-10-02T18:02:07.959Z,3.33
2022-10-02T18:04:49.790Z,3.78
2022-10-02T18:07:41.624Z,3.35
2022-10-02T18:10:41.730Z,3.40
2022-10-02T18:13:21.168Z,3.75
2022-10-02T18:16:14.259Z,3.40
2022-10-02T18:19:16.047Z,3.35
2022-10-02T18:21:56.947Z,3.20
2022-10-02T18:24:26.870Z,3.97
2022-10-02T18:27:03.627Z,3.20
2022-10-02T18:29:49.298Z,3.33
2022-10-02T18:32:31.620Z,3.05
2022-10-02T18:35:08.481Z,3.00
2022-10-02T18:37:50.730Z,2.83
2022-10-02T18:43:21.935Z,3.30
2022-10-02T18:46:27.380Z,3.25
2022-10-02T18:49:26.040Z,2.95
2022-10-02T18:52:17.446Z,3.25
2022-10-02T18:55:10.461Z,3.20
2022-10-02T18:57:43.588Z,3.15
2022-10-02T19:00:17.208Z,3.30
2022-10-02T19:03:18.458Z,3.10
2022-10-02T19:06:11.512Z,3.78
2022-10-02T19:09:11.172Z,3.42
2022-10-02T19:11:48.380Z,3.13
2022-10-02T19:14:25.814Z,3.30
2022-10-02T19:16:59.416Z,3.17
2022-10-02T19:19:28.319Z,3.20
2022-10-02T19:22:01.354Z,3.15
2022-10-02T19:24:34.345Z,3.45
2022-10-02T19:27:09.882Z,3.80
2022-10-02T19:29:41.889Z,3.58
2022-10-02T19:34:50.958Z,3.50
2022-10-02T19:37:18.998Z,3.58
2022-10-02T19:39:56.384Z,3.55
2022-10-02T19:42:29.450Z,3.53
2022-10-02T19:45:05.402Z,3.92
2022-10-02T19:48:06.894Z,3.38
2022-10-02T19:50:40.435Z,3.20
2022-10-02T19:53:23.025Z,3.75
2022-10-02T19:56:01.582Z,3.40
2022-10-02T19:58:59.079Z,4.20
2022-10-02T20:01:30.139Z,3.55
2022-10-02T20:04:00.981Z,3.70
2022-10-02T20:06:35.122Z,3.35
2022-10-02T20:09:16.878Z,3.63
2022-10-02T20:11:47.829Z,3.78
2022-10-02T20:14:17.927Z,3.65
2022-10-02T20:17:04.457Z,3.78
2022-10-02T20:19:36.056Z,3.08
2022-10-02T20:22:34.398Z,3.42
2022-10-02T20:25:18.977Z,3.65
2022-10-02T20:27:53.112Z,3.75
2022-10-02T20:30:22.806Z,3.50
2022-10-02T20:33:03.084Z,3.78
2022-10-02T20:35:44.951Z,3.45
2022-10-02T20:38:24.150Z,3.67
2022-10-02T20:40:54.582Z,3.25
2022-10-02T20:43:38.922Z,3.92
2022-10-02T20:46:33.671Z,3.78
2022-10-02T20:49:28.417Z,3.53
2022-10-02T20:52:26.573Z,3.55
2022-10-02T20:55:12.638Z,4.07
2022-10-02T20:58:01.408Z,3.40
2022-10-02T21:00:53.821Z,3.58
2022-10-02T21:06:14.473Z,3.33
2022-10-02T21:09:20.433Z,3.72
2022-10-02T21:12:12.207Z,4.10
2022-10-02T21:14:54.601Z,3.33
2022-10-02T21:18:01.210Z,3.80
2022-10-02T21:20:49.708Z,3.58
2022-10-02T21:23:47.064Z,3.70
2022-10-02T21:26:51.637Z,3.47
2022-10-02T21:29:47.416Z,4.10
2022-10-02T21:32:41.026Z,4.00
2022-10-02T21:35:31.931Z,3.70
2022-10-02T21:38:36.672Z,3.95
2022-10-02T21:41:33.522Z,4.25
2022-10-02T21:44:19.731Z,5.35
2022-10-02T21:47:12.424Z,5.28
2022-10-02T21:49:56.250Z,5.10
2022-10-02T21:52:57.171Z,4.60
2022-10-02T21:55:33.455Z,4.63
2022-10-02T21:58:19.263Z,4.72
2022-10-02T22:01:15.885Z,4.82
2022-10-02T22:04:13.863Z,4.35
2022-10-02T22:07:22.616Z,4.25
2022-10-02T22:09:54.398Z,4.47
2022-10-02T22:12:27.832Z,4.70
2022-10-02T22:15:29.629Z,4.60
2022-10-02T22:18:02.757Z,5.15
2022-10-02T22:20:59.784Z,5.43
2022-10-02T22:23:49.918Z,4.60
2022-10-02T22:26:38.469Z,4.75
2022-10-02T22:29:27.057Z,4.60
2022-10-02T22:32:36.275Z,4.72
2022-10-02T22:35:29.051Z,5.10
2022-10-02T22:38:34.295Z,5.25
2022-10-02T22:41:29.914Z,5.15
2022-10-02T22:44:02.007Z,4.78
2022-10-02T22:49:46.375Z,5.22
2022-10-02T22:52:37.862Z,5.07
2022-10-02T22:55:23.789Z,4.87
2022-10-02T22:58:02.555Z,4.82
2022-10-02T23:00:38.302Z,4.95
2022-10-02T23:03:37.964Z,5.15
2022-10-02T23:06:12.621Z,4.68
2022-10-02T23:08:42.939Z,4.93
2022-10-02T23:11:17.539Z,4.97
2022-10-02T23:13:59.865Z,4.57
2022-10-02T23:16:41.034Z,5.00
2022-10-02T23:19:14.102Z,4.22
2022-10-02T23:21:47.907Z,4.82
2022-10-02T23:24:28.481Z,4.13
2022-10-02T23:27:09.543Z,4.43
2022-10-02T23:30:01.080Z,4.63
2022-10-02T23:33:02.849Z,4.47
2022-10-02T23:35:49.915Z,4.60
2022-10-02T23:38:26.305Z,4.78
2022-10-02T23:41:22.835Z,4.45
2022-10-02T23:44:28.592Z,5.10
2022-10-02T23:46:55.947Z,4.50
2022-10-02T23:49:26.864Z,4.40
2022-10-02T23:51:54.201Z,5.07
2022-10-02T23:54:53.626Z,4.45
2022-10-02T23:57:29.490Z,4.40
